createdAt,value
2022-11-02T00:01:46.529Z,6.40
2022-11-02T00:04:15.692Z,9.57
2022-11-02T00:06:44.750Z,7.18
2022-11-02T00:09:13.282Z,7.47
2022-11-02T00:11:41.776Z,6.72
2022-11-02T00:14:10.013Z,5.80
2022-11-02T00:16:41.996Z,6.47
2022-11-02T00:19:11.114Z,7.63
2022-11-02T00:21:40.290Z,5.65
2022-11-02T00:24:10.296Z,7.40
2022-11-02T00:26:39.703Z,5.00
2022-11-02T00:29:09.946Z,5.15
2022-11-02T00:31:39.897Z,5.68
2022-11-02T00:34:08.554Z,4.50
2022-11-02T00:36:36.956Z,5.28
2022-11-02T00:39:05.460Z,5.25
2022-11-02T00:41:34.015Z,5.85
2022-11-02T00:44:02.398Z,4.25
2022-11-02T00:46:30.879Z,4.85
2022-11-02T00:49:00.819Z,5.03
2022-11-02T00:51:29.920Z,8.27
2022-11-02T00:53:59.635Z,5.03
2022-11-02T00:56:28.022Z,5.05
2022-11-02T00:58:57.031Z,5.22
2022-11-02T01:01:26.878Z,5.57
2022-11-02T01:03:57.918Z,7.55
2022-11-02T01:06:27.894Z,13.32
2022-11-02T01:08:56.411Z,6.15
2022-11-02T01:11:26.270Z,7.72
2022-11-02T01:13:54.951Z,9.38
2022-11-02T01:16:23.588Z,6.03
2022-11-02T01:18:54.207Z,5.65
2022-11-02T01:21:23.009Z,4.65
2022-11-02T01:23:53.128Z,5.93
2022-11-02T01:26:21.584Z,7.90
2022-11-02T01:28:49.887Z,4.85
2022-11-02T01:31:18.488Z,5.30
2022-11-02T01:33:47.787Z,4.20
2022-11-02T01:36:20.056Z,4.68
2022-11-02T01:38:49.202Z,5.78
2022-11-02T01:41:19.407Z,4.55
2022-11-02T01:43:51.372Z,5.97
2022-11-02T01:46:24.227Z,7.80
2022-11-02T01:48:57.015Z,15.43
2022-11-02T01:51:29.096Z,6.72
2022-11-02T01:54:04.267Z,5.65
2022-11-02T01:56:36.569Z,5.25
2022-11-02T01:59:09.925Z,5.15
2022-11-02T02:01:38.638Z,5.38
2022-11-02T02:04:08.062Z,6.72
2022-11-02T02:06:36.672Z,8.15
2022-11-02T02:09:07.822Z,8.38
2022-11-02T02:11:40.193Z,4.60
2022-11-02T02:14:12.265Z,5.45
2022-11-02T02:17:01.844Z,5.82
2022-11-02T02:19:39.227Z,5.75
2022-11-02T02:22:24.585Z,9.63
2022-11-02T02:25:05.492Z,8.85
2022-11-02T02:27:45.455Z,3.95
2022-11-02T02:30:15.522Z,6.03
2022-11-02T02:32:51.536Z,4.82
2022-11-02T02:35:29.087Z,3.92
2022-11-02T02:38:02.201Z,3.38
2022-11-02T02:40:36.085Z,6.10
2022-11-02T02:43:11.926Z,5.07
2022-11-02T02:45:45.014Z,2.90
2022-11-02T02:48:17.518Z,6.20
2022-11-02T02:50:49.992Z,3.28
2022-11-02T02:53:22.775Z,3.30
2022-11-02T02:55:52.451Z,6.43
2022-11-02T02:58:26.388Z,5.85
2022-11-02T03:00:57.638Z,7.60
2022-11-02T03:03:28.080Z,4.57
2022-11-02T03:06:16.327Z,4.47
2022-11-02T03:08:54.104Z,3.83
2022-11-02T03:11:24.751Z,12.20
2022-11-02T03:14:06.723Z,8.15
2022-11-02T03:16:49.330Z,3.90
2022-11-02T03:19:24.467Z,3.78
2022-11-02T03:22:01.357Z,9.65
2022-11-02T03:24:37.926Z,4.28
2022-11-02T03:27:16.947Z,4.70
2022-11-02T03:29:56.067Z,5.07
2022-11-02T03:32:30.193Z,3.78
2022-11-02T03:37:34.942Z,4.68
2022-11-02T03:40:12.220Z,5.47
2022-11-02T03:42:43.058Z,4.95
2022-11-02T03:45:18.619Z,5.28
2022-11-02T03:47:51.021Z,3.03
2022-11-02T03:50:23.246Z,5.93
2022-11-02T03:52:58.404Z,6.22
2022-11-02T03:55:32.732Z,3.47
2022-11-02T03:58:01.785Z,6.32
2022-11-02T04:00:36.243Z,3.72
2022-11-02T04:03:08.618Z,4.50
2022-11-02T04:05:38.527Z,5.82
2022-11-02T04:08:22.673Z,5.45
2022-11-02T04:11:09.371Z,4.10
2022-11-02T04:13:55.461Z,8.15
2022-11-02T04:16:28.324Z,3.10
2022-11-02T04:19:14.549Z,4.15
2022-11-02T04:22:03.497Z,4.20
2022-11-02T04:24:48.959Z,4.45
2022-11-02T04:27:20.931Z,3.45
2022-11-02T04:29:50.084Z,3.22
2022-11-02T04:32:40.751Z,5.13
2022-11-02T04:35:09.514Z,4.75
2022-11-02T04:37:58.287Z,4.03
2022-11-02T04:40:26.999Z,3.75
2022-11-02T04:42:57.019Z,4.25
2022-11-02T04:45:26.170Z,5.25
2022-11-02T04:48:02.122Z,4.07
2022-11-02T04:50:31.552Z,3.33
2022-11-02T04:53:01.158Z,4.40
2022-11-02T04:55:30.511Z,3.33
2022-11-02T04:57:59.527Z,3.80
2022-11-02T05:00:27.966Z,2.92
2022-11-02T05:02:58.851Z,3.55
2022-11-02T05:05:27.111Z,4.05
2022-11-02T05:07:56.069Z,7.55
2022-11-02T05:10:24.450Z,4.53
2022-11-02T05:12:58.684Z,3.00
2022-11-02T05:15:27.245Z,4.00
2022-11-02T05:17:55.594Z,3.50
2022-11-02T05:20:25.865Z,4.50
2022-11-02T05:22:54.628Z,4.43
2022-11-02T05:25:23.247Z,7.45
2022-11-02T05:27:52.112Z,5.65
2022-11-02T05:30:20.862Z,3.20
2022-11-02T05:32:49.902Z,4.18
2022-11-02T05:35:18.857Z,5.25
2022-11-02T05:37:48.624Z,3.15
2022-11-02T05:40:17.419Z,3.85
2022-11-02T05:42:45.997Z,3.05
2022-11-02T05:45:14.668Z,3.78
2022-11-02T05:47:44.406Z,3.85
2022-11-02T05:50:12.901Z,4.05
2022-11-02T05:52:41.912Z,4.97
2022-11-02T05:55:13.849Z,5.45
2022-11-02T05:57:42.639Z,4.78
2022-11-02T06:00:12.671Z,4.57
2022-11-02T06:02:41.494Z,4.63
2022-11-02T06:05:10.805Z,4.05
2022-11-02T06:07:39.974Z,2.70
2022-11-02T06:10:09.474Z,6.28
2022-11-02T06:12:39.482Z,3.22
2022-11-02T06:15:09.657Z,4.43
2022-11-02T06:17:42.939Z,5.47
2022-11-02T06:20:11.994Z,3.78
2022-11-02T06:22:41.690Z,2.35
2022-11-02T06:25:11.586Z,3.53
2022-11-02T06:27:45.866Z,5.85
2022-11-02T06:30:15.230Z,5.22
2022-11-02T06:32:48.824Z,4.57
2022-11-02T06:35:17.955Z,6.10
2022-11-02T06:37:46.753Z,4.53
2022-11-02T06:40:16.029Z,5.45
2022-11-02T06:43:03.442Z,2.63
2022-11-02T06:45:34.722Z,2.35
2022-11-02T06:48:03.288Z,5.47
2022-11-02T06:50:31.621Z,5.45
2022-11-02T06:53:00.129Z,6.30
2022-11-02T06:55:28.511Z,3.25
2022-11-02T06:57:58.372Z,4.57
2022-11-02T07:00:30.225Z,3.78
2022-11-02T07:03:03.130Z,4.03
2022-11-02T07:05:32.555Z,3.50
2022-11-02T07:08:01.357Z,4.75
2022-11-02T07:10:30.535Z,4.15
2022-11-02T07:13:00.880Z,7.78
2022-11-02T07:15:29.359Z,4.32
2022-11-02T07:17:57.731Z,3.95
2022-11-02T07:20:26.486Z,5.05
2022-11-02T07:22:55.693Z,2.75
2022-11-02T07:25:24.377Z,3.65
2022-11-02T07:27:53.479Z,4.30
2022-11-02T07:30:23.334Z,2.60
2022-11-02T07:32:52.930Z,4.47
2022-11-02T07:35:21.238Z,5.80
2022-11-02T07:37:57.178Z,3.67
2022-11-02T07:40:25.834Z,3.38
2022-11-02T07:42:55.415Z,2.78
2022-11-02T07:45:26.400Z,8.80
2022-11-02T07:47:55.108Z,2.67
2022-11-02T07:50:27.389Z,3.75
2022-11-02T07:52:57.742Z,2.20
2022-11-02T07:55:28.250Z,4.25
2022-11-02T07:57:57.756Z,6.15
2022-11-02T08:00:29.244Z,6.13
2022-11-02T08:02:58.123Z,3.08
2022-11-02T08:05:27.400Z,3.03
2022-11-02T08:08:00.740Z,4.60
2022-11-02T08:10:34.040Z,2.10
2022-11-02T08:13:07.326Z,3.28
2022-11-02T08:15:38.535Z,4.28
2022-11-02T08:18:09.133Z,7.18
2022-11-02T08:20:38.891Z,2.53
2022-11-02T08:23:07.861Z,3.90
2022-11-02T08:25:37.136Z,3.28
2022-11-02T08:28:06.961Z,5.45
2022-11-02T08:30:38.576Z,4.72
2022-11-02T08:33:11.300Z,5.18
2022-11-02T08:35:39.471Z,4.53
2022-11-02T08:38:09.237Z,5.07
2022-11-02T08:40:38.495Z,2.95
2022-11-02T08:43:09.525Z,3.95
2022-11-02T08:48:30.712Z,1.92
2022-11-02T08:50:59.656Z,3.97
2022-11-02T08:53:28.781Z,3.40
2022-11-02T08:55:59.474Z,3.53
2022-11-02T08:58:28.147Z,2.40
2022-11-02T09:00:58.568Z,3.45
2022-11-02T09:03:28.631Z,4.32
2022-11-02T09:06:02.321Z,8.07
2022-11-02T09:08:31.758Z,5.90
2022-11-02T09:11:02.010Z,4.40
2022-11-02T09:13:31.094Z,1.38
2022-11-02T09:16:03.005Z,3.65
2022-11-02T09:18:32.078Z,2.53
2022-11-02T09:21:03.850Z,2.13
2022-11-02T09:23:32.953Z,3.20
2022-11-02T09:26:01.741Z,1.77
2022-11-02T09:28:30.202Z,4.85
2022-11-02T09:30:59.014Z,1.17
2022-11-02T09:33:30.079Z,3.05
2022-11-02T09:36:02.969Z,2.38
2022-11-02T09:38:31.691Z,5.93
2022-11-02T09:41:07.131Z,5.28
2022-11-02T09:43:52.051Z,3.20
2022-11-02T09:46:25.097Z,1.65
2022-11-02T09:48:59.057Z,3.45
2022-11-02T09:51:34.241Z,3.13
2022-11-02T09:54:13.307Z,2.65
2022-11-02T09:56:46.184Z,3.75
2022-11-02T09:59:17.576Z,4.32
2022-11-02T10:01:57.100Z,2.25
2022-11-02T10:04:45.099Z,2.38
2022-11-02T10:07:26.574Z,3.38
2022-11-02T10:09:59.766Z,2.67
2022-11-02T10:12:35.825Z,1.70
2022-11-02T10:15:10.451Z,3.90
2022-11-02T10:17:42.109Z,5.35
2022-11-02T10:20:25.023Z,2.58
2022-11-02T10:22:56.299Z,5.28
2022-11-02T10:25:26.271Z,6.72
2022-11-02T10:28:04.586Z,4.32
2022-11-02T10:30:34.620Z,4.07
2022-11-02T10:33:03.361Z,4.30
2022-11-02T10:36:04.788Z,5.38
2022-11-02T10:38:43.929Z,5.63
2022-11-02T10:41:26.999Z,4.97
2022-11-02T10:44:10.165Z,2.75
2022-11-02T10:47:03.301Z,6.22
2022-11-02T10:49:58.165Z,3.53
2022-11-02T10:52:37.598Z,2.90
2022-11-02T10:55:09.805Z,3.80
2022-11-02T10:57:41.308Z,1.35
2022-11-02T11:00:27.925Z,4.43
2022-11-02T11:03:11.371Z,2.13
2022-11-02T11:05:56.506Z,2.08
2022-11-02T11:08:39.022Z,3.15
2022-11-02T11:11:21.251Z,5.78
2022-11-02T11:16:50.206Z,0.90
2022-11-02T11:19:40.170Z,2.33
2022-11-02T11:22:26.992Z,2.08
2022-11-02T11:25:27.938Z,1.38
2022-11-02T11:27:58.877Z,3.22
2022-11-02T11:33:23.516Z,3.47
2022-11-02T11:35:53.247Z,2.57
2022-11-02T11:38:26.502Z,3.13
2022-11-02T11:41:00.412Z,5.45
2022-11-02T11:43:34.070Z,2.92
2022-11-02T11:46:07.259Z,9.10
2022-11-02T11:48:39.797Z,3.60
2022-11-02T11:51:28.838Z,7.63
2022-11-02T11:54:24.444Z,4.55
2022-11-02T11:56:56.598Z,2.28
2022-11-02T11:59:32.167Z,5.40
2022-11-02T12:02:02.914Z,5.75
2022-11-02T12:04:42.561Z,3.25
2022-11-02T12:07:56.036Z,1.30
2022-11-02T12:10:40.510Z,2.05
2022-11-02T12:13:23.932Z,2.67
2022-11-02T12:16:07.442Z,5.43
2022-11-02T12:18:51.254Z,1.97
2022-11-02T12:21:33.455Z,1.17
2022-11-02T12:24:32.310Z,1.85
2022-11-02T12:27:12.759Z,5.00
2022-11-02T12:30:06.048Z,2.47
2022-11-02T12:32:53.849Z,5.00
2022-11-02T12:35:34.745Z,2.85
2022-11-02T12:38:23.021Z,1.17
2022-11-02T12:41:03.532Z,4.43
2022-11-02T12:43:42.355Z,6.75
2022-11-02T12:46:23.784Z,5.30
2022-11-02T12:49:08.713Z,3.10
2022-11-02T12:51:42.346Z,3.00
2022-11-02T12:54:13.482Z,1.98
2022-11-02T12:56:49.849Z,4.63
2022-11-02T12:59:23.948Z,4.80
2022-11-02T13:04:34.007Z,3.58
2022-11-02T13:07:12.626Z,3.92
2022-11-02T13:09:51.536Z,5.65
2022-11-02T13:12:23.828Z,8.18
2022-11-02T13:14:56.079Z,2.95
2022-11-02T13:17:45.423Z,5.47
2022-11-02T13:20:20.929Z,4.47
2022-11-02T13:22:57.675Z,2.97
2022-11-02T13:25:36.732Z,2.35
2022-11-02T13:28:13.814Z,4.80
2022-11-02T13:30:45.194Z,1.65
2022-11-02T13:33:18.956Z,4.15
2022-11-02T13:35:50.995Z,2.13
2022-11-02T13:38:31.758Z,3.35
2022-11-02T13:41:21.575Z,4.80
2022-11-02T13:44:17.967Z,5.75
2022-11-02T13:47:10.802Z,3.00
2022-11-02T13:49:51.462Z,4.72
2022-11-02T13:52:26.129Z,2.22
2022-11-02T13:54:59.590Z,1.58
2022-11-02T13:57:34.873Z,5.30
2022-11-02T14:00:07.005Z,18.17
2022-11-02T14:02:41.837Z,2.58
2022-11-02T14:05:27.264Z,3.65
2022-11-02T14:07:56.758Z,2.50
2022-11-02T14:10:25.819Z,1.98
2022-11-02T14:12:55.131Z,2.90
2022-11-02T14:15:55.362Z,1.52
2022-11-02T14:18:32.031Z,4.57
2022-11-02T14:21:40.597Z,1.85
2022-11-02T14:24:42.992Z,1.27
2022-11-02T14:27:30.008Z,3.58
2022-11-02T14:29:59.569Z,7.60
2022-11-02T14:32:41.012Z,3.47
2022-11-02T14:35:31.074Z,4.90
2022-11-02T14:38:20.385Z,2.97
2022-11-02T14:40:59.150Z,2.42
2022-11-02T14:43:53.705Z,2.97
2022-11-02T14:46:57.446Z,3.63
2022-11-02T14:49:28.974Z,2.83
2022-11-02T14:52:04.170Z,3.05
2022-11-02T14:54:40.988Z,4.43
2022-11-02T14:57:26.590Z,1.48
2022-11-02T14:59:58.424Z,1.98
2022-11-02T15:02:31.487Z,2.15
2022-11-02T15:05:03.072Z,7.13
2022-11-02T15:07:36.660Z,2.63
2022-11-02T15:10:30.039Z,4.43
2022-11-02T15:13:33.730Z,1.67
2022-11-02T15:16:25.260Z,1.30
2022-11-02T15:18:55.731Z,2.08
2022-11-02T15:21:30.967Z,4.13
2022-11-02T15:24:15.649Z,4.80
2022-11-02T15:26:55.549Z,3.47
2022-11-02T15:29:39.317Z,4.45
2022-11-02T15:32:22.399Z,1.70
2022-11-02T15:34:55.199Z,2.77
2022-11-02T15:37:27.065Z,6.80
2022-11-02T15:39:57.721Z,3.05
2022-11-02T15:42:36.352Z,0.95
2022-11-02T15:45:41.842Z,4.78
2022-11-02T15:48:19.750Z,4.13
2022-11-02T15:50:56.938Z,4.72
2022-11-02T15:53:45.105Z,2.60
2022-11-02T15:56:49.693Z,2.85
2022-11-02T15:59:37.950Z,1.98
2022-11-02T16:02:32.404Z,3.85
2022-11-02T16:05:06.356Z,6.47
2022-11-02T16:08:05.043Z,8.30
2022-11-02T16:10:29.068Z,3.83
2022-11-02T16:13:02.413Z,3.17
2022-11-02T16:15:31.669Z,4.82
2022-11-02T16:18:00.206Z,8.55
2022-11-02T16:20:32.544Z,4.43
2022-11-02T16:23:04.435Z,6.40
2022-11-02T16:25:40.066Z,5.88
2022-11-02T16:28:21.101Z,8.73
2022-11-02T16:31:10.273Z,6.18
2022-11-02T16:33:44.748Z,4.70
2022-11-02T16:36:18.284Z,8.40
2022-11-02T16:38:58.503Z,4.68
2022-11-02T16:41:28.867Z,8.70
2022-11-02T16:43:59.413Z,4.65
2022-11-02T16:46:33.113Z,8.10
2022-11-02T16:49:16.693Z,5.28
2022-11-02T16:51:55.532Z,4.57
2022-11-02T16:54:40.417Z,2.42
2022-11-02T16:57:17.805Z,2.72
2022-11-02T16:59:52.865Z,6.03
2022-11-02T17:02:32.155Z,6.00
2022-11-02T17:05:05.965Z,6.53
2022-11-02T17:07:40.285Z,10.00
2022-11-02T17:10:11.053Z,9.87
2022-11-02T17:12:43.632Z,11.57
2022-11-02T17:17:47.876Z,7.53
2022-11-02T17:20:24.587Z,6.72
2022-11-02T17:23:00.470Z,6.05
2022-11-02T17:25:31.569Z,6.55
2022-11-02T17:28:01.853Z,9.30
2022-11-02T17:30:46.986Z,9.75
2022-11-02T17:33:25.387Z,7.38
2022-11-02T17:35:56.194Z,6.15
2022-11-02T17:38:28.101Z,7.90
2022-11-02T17:40:57.354Z,8.75
2022-11-02T17:43:24.650Z,6.05
2022-11-02T17:46:00.236Z,7.80
2022-11-02T17:48:31.630Z,5.40
2022-11-02T17:51:01.917Z,6.30
2022-11-02T17:53:32.983Z,17.65
2022-11-02T17:56:02.076Z,7.15
2022-11-02T17:58:32.273Z,10.07
2022-11-02T18:01:03.129Z,8.05
2022-11-02T18:03:32.253Z,12.02
2022-11-02T18:06:01.557Z,11.38
2022-11-02T18:08:53.339Z,5.22
2022-11-02T18:11:26.071Z,4.05
2022-11-02T18:13:56.994Z,3.77
2022-11-02T18:16:26.048Z,4.30
2022-11-02T18:18:55.250Z,5.53
2022-11-02T18:21:23.991Z,6.25
2022-11-02T18:23:53.957Z,9.80
2022-11-02T18:26:22.963Z,9.43
2022-11-02T18:28:51.227Z,6.53
2022-11-02T18:31:20.286Z,5.30
2022-11-02T18:33:49.349Z,8.18
2022-11-02T18:36:18.131Z,4.85
2022-11-02T18:38:47.116Z,5.65
2022-11-02T18:41:29.992Z,11.48
2022-11-02T18:44:05.613Z,9.10
2022-11-02T18:46:36.221Z,5.28
2022-11-02T18:49:05.577Z,11.27
2022-11-02T18:51:35.465Z,7.32
2022-11-02T18:54:06.798Z,6.90
2022-11-02T18:56:38.171Z,3.17
2022-11-02T18:59:07.315Z,6.53
2022-11-02T19:01:37.085Z,10.55
2022-11-02T19:04:06.816Z,6.43
2022-11-02T19:06:53.325Z,3.00
2022-11-02T19:09:23.556Z,7.13
2022-11-02T19:11:57.676Z,6.78
2022-11-02T19:16:56.333Z,6.60
2022-11-02T19:19:25.473Z,5.18
2022-11-02T19:21:56.167Z,7.38
2022-11-02T19:24:24.754Z,8.63
2022-11-02T19:26:55.530Z,7.95
2022-11-02T19:29:24.512Z,9.80
2022-11-02T19:31:54.044Z,5.97
2022-11-02T19:34:23.628Z,6.18
2022-11-02T19:36:53.516Z,10.07
2022-11-02T19:39:23.143Z,10.30
2022-11-02T19:41:53.459Z,14.40
2022-11-02T19:44:24.292Z,15.15
2022-11-02T19:46:53.112Z,7.53
2022-11-02T19:49:22.015Z,9.40
2022-11-02T19:51:50.674Z,7.93
2022-11-02T19:54:21.875Z,7.13
2022-11-02T19:56:50.651Z,9.82
2022-11-02T19:59:20.289Z,15.85
2022-11-02T20:01:52.987Z,21.27
2022-11-02T20:04:22.116Z,26.02
2022-11-02T20:06:50.737Z,25.38
2022-11-02T20:09:22.250Z,11.98
2022-11-02T20:11:50.965Z,10.07
2022-11-02T20:14:20.552Z,8.65
2022-11-02T20:17:04.374Z,5.75
2022-11-02T20:19:39.829Z,14.43
2022-11-02T20:22:08.143Z,13.95
2022-11-02T20:24:37.540Z,12.48
2022-11-02T20:27:08.127Z,10.02
2022-11-02T20:29:37.477Z,8.10
2022-11-02T20:32:10.399Z,9.55
2022-11-02T20:34:40.058Z,9.45
2022-11-02T20:37:09.765Z,9.40
2022-11-02T20:39:38.434Z,9.93
2022-11-02T20:42:07.244Z,4.60
2022-11-02T20:44:35.570Z,6.18
2022-11-02T20:47:04.742Z,4.78
2022-11-02T20:49:49.951Z,8.15
2022-11-02T20:52:22.380Z,5.32
2022-11-02T20:54:51.710Z,9.10
2022-11-02T20:57:22.423Z,10.30
2022-11-02T20:59:51.114Z,6.85
2022-11-02T21:02:22.522Z,7.78
2022-11-02T21:04:53.400Z,11.77
2022-11-02T21:07:21.851Z,7.82
2022-11-02T21:09:54.174Z,11.38
2022-11-02T21:12:41.625Z,5.75
2022-11-02T21:15:12.124Z,7.65
2022-11-02T21:17:42.433Z,11.98
2022-11-02T21:20:33.081Z,9.25
2022-11-02T21:23:04.341Z,5.50
2022-11-02T21:25:35.940Z,9.68
2022-11-02T21:28:04.839Z,10.45
2022-11-02T21:30:36.908Z,7.82
2022-11-02T21:33:06.302Z,5.55
2022-11-02T21:35:39.335Z,15.70
2022-11-02T21:38:09.687Z,11.35
2022-11-02T21:40:38.788Z,11.73
2022-11-02T21:43:07.673Z,13.18
2022-11-02T21:45:38.073Z,11.35
2022-11-02T21:48:07.592Z,9.85
2022-11-02T21:50:38.431Z,7.05
2022-11-02T21:53:07.436Z,8.43
2022-11-02T21:55:37.513Z,11.40
2022-11-02T21:58:08.562Z,9.27
2022-11-02T22:00:54.247Z,8.15
2022-11-02T22:03:23.541Z,15.05
2022-11-02T22:05:57.481Z,5.78
2022-11-02T22:08:41.904Z,7.95
2022-11-02T22:11:12.647Z,9.88
2022-11-02T22:13:43.107Z,8.65
2022-11-02T22:16:15.036Z,6.15
2022-11-02T22:18:45.471Z,6.80
2022-11-02T22:21:16.719Z,5.15
2022-11-02T22:23:46.754Z,9.05
2022-11-02T22:26:17.003Z,5.30
2022-11-02T22:28:47.324Z,8.35
2022-11-02T22:31:18.132Z,5.65
2022-11-02T22:33:47.740Z,4.40
2022-11-02T22:36:20.630Z,8.32
2022-11-02T22:38:51.515Z,5.20
2022-11-02T22:41:21.792Z,5.63
2022-11-02T22:43:52.323Z,7.18
2022-11-02T22:46:21.727Z,5.90
2022-11-02T22:48:52.980Z,8.93
2022-11-02T22:51:25.251Z,9.35
2022-11-02T22:53:54.452Z,5.55
2022-11-02T22:56:24.904Z,7.10
2022-11-02T22:58:53.777Z,5.70
2022-11-02T23:01:23.526Z,4.90
2022-11-02T23:03:52.490Z,8.75
2022-11-02T23:06:25.349Z,7.32
2022-11-02T23:08:55.044Z,5.80
2022-11-02T23:11:26.450Z,5.75
2022-11-02T23:13:58.337Z,8.25
2022-11-02T23:16:28.812Z,7.03
2022-11-02T23:19:20.405Z,4.93
2022-11-02T23:22:15.552Z,8.65
2022-11-02T23:25:03.464Z,8.45
2022-11-02T23:27:33.018Z,6.57
2022-11-02T23:30:19.273Z,6.32
2022-11-02T23:32:49.650Z,11.57
2022-11-02T23:35:35.809Z,9.57
2022-11-02T23:38:07.809Z,7.90
2022-11-02T23:40:36.977Z,7.43
2022-11-02T23:43:06.554Z,7.43
2022-11-02T23:45:35.191Z,8.88
2022-11-02T23:48:07.594Z,7.28
2022-11-02T23:50:54.184Z,10.00
2022-11-02T23:53:42.676Z,5.72
2022-11-02T23:56:34.797Z,5.18
2022-11-02T23:59:09.474Z,8.23
